sensor_id;sensor_type;location;lat;lon;timestamp;P1;durP1;ratioP1;P2;durP2;ratioP2
78148;SDS011;67396;42.664;23.382;2023-02-15T00:01:13;66.50;;;28.75;;
78148;SDS011;67396;42.664;23.382;2023-02-15T00:03:39;61.63;;;24.52;;
78148;SDS011;67396;42.664;23.382;2023-02-15T00:06:05;60.30;;;23.38;;
78148;SDS011;67396;42.664;23.382;2023-02-15T00:08:30;55.78;;;22.00;;
78148;SDS011;67396;42.664;23.382;2023-02-15T00:11:11;63.42;;;25.73;;
78148;SDS011;67396;42.664;23.382;2023-02-15T00:13:39;69.60;;;28.15;;
78148;SDS011;67396;42.664;23.382;2023-02-15T00:16:08;63.97;;;26.15;;
78148;SDS011;67396;42.664;23.382;2023-02-15T00:18:35;62.97;;;26.13;;
78148;SDS011;67396;42.664;23.382;2023-02-15T00:21:05;68.03;;;26.23;;
78148;SDS011;67396;42.664;23.382;2023-02-15T00:23:33;68.18;;;25.52;;
78148;SDS011;67396;42.664;23.382;2023-02-15T00:26:11;61.90;;;25.05;;
78148;SDS011;67396;42.664;23.382;2023-02-15T00:28:37;62.75;;;23.27;;
78148;SDS011;67396;42.664;23.382;2023-02-15T00:31:06;60.75;;;24.77;;
78148;SDS011;67396;42.664;23.382;2023-02-15T00:33:36;76.63;;;28.63;;
78148;SDS011;67396;42.664;23.382;2023-02-15T00:36:03;62.88;;;27.15;;
78148;SDS011;67396;42.664;23.382;2023-02-15T00:38:30;71.50;;;27.25;;
78148;SDS011;67396;42.664;23.382;2023-02-15T00:40:57;65.53;;;26.10;;
78148;SDS011;67396;42.664;23.382;2023-02-15T00:43:24;66.25;;;26.40;;
78148;SDS011;67396;42.664;23.382;2023-02-15T00:45:50;58.20;;;25.23;;
78148;SDS011;67396;42.664;23.382;2023-02-15T00:48:15;69.97;;;26.25;;
78148;SDS011;67396;42.664;23.382;2023-02-15T00:53:06;65.05;;;27.15;;
78148;SDS011;67396;42.664;23.382;2023-02-15T00:55:33;66.40;;;27.27;;
78148;SDS011;67396;42.664;23.382;2023-02-15T00:57:58;74.10;;;27.75;;
78148;SDS011;67396;42.664;23.382;2023-02-15T01:02:49;58.17;;;21.33;;
78148;SDS011;67396;42.664;23.382;2023-02-15T01:07:40;48.55;;;18.98;;
78148;SDS011;67396;42.664;23.382;2023-02-15T01:10:06;55.40;;;23.35;;
78148;SDS011;67396;42.664;23.382;2023-02-15T01:12:32;54.72;;;23.58;;
78148;SDS011;67396;42.664;23.382;2023-02-15T01:14:58;61.03;;;23.45;;
78148;SDS011;67396;42.664;23.382;2023-02-15T01:17:23;55.50;;;23.13;;
78148;SDS011;67396;42.664;23.382;2023-02-15T01:22:14;62.08;;;22.92;;
78148;SDS011;67396;42.664;23.382;2023-02-15T01:24:39;60.38;;;26.23;;
78148;SDS011;67396;42.664;23.382;2023-02-15T01:27:05;39.83;;;18.23;;
78148;SDS011;67396;42.664;23.382;2023-02-15T01:29:31;48.10;;;19.30;;
78148;SDS011;67396;42.664;23.382;2023-02-15T01:31:56;72.38;;;25.95;;
78148;SDS011;67396;42.664;23.382;2023-02-15T01:34:22;55.85;;;23.48;;
78148;SDS011;67396;42.664;23.382;2023-02-15T01:36:47;60.40;;;23.50;;
78148;SDS011;67396;42.664;23.382;2023-02-15T01:39:13;48.35;;;20.52;;
78148;SDS011;67396;42.664;23.382;2023-02-15T01:41:39;60.67;;;25.27;;
78148;SDS011;67396;42.664;23.382;2023-02-15T01:44:40;57.40;;;24.40;;
78148;SDS011;67396;42.664;23.382;2023-02-15T01:47:10;63.72;;;24.15;;
78148;SDS011;67396;42.664;23.382;2023-02-15T01:49:39;59.90;;;23.80;;
78148;SDS011;67396;42.664;23.382;2023-02-15T01:52:08;57.28;;;23.08;;
78148;SDS011;67396;42.664;23.382;2023-02-15T01:54:37;61.15;;;25.92;;
78148;SDS011;67396;42.664;23.382;2023-02-15T01:57:08;56.22;;;22.42;;
78148;SDS011;67396;42.664;23.382;2023-02-15T01:59:35;56.65;;;21.95;;
78148;SDS011;67396;42.664;23.382;2023-02-15T02:02:06;62.90;;;22.98;;
78148;SDS011;67396;42.664;23.382;2023-02-15T02:04:50;63.67;;;25.27;;
78148;SDS011;67396;42.664;23.382;2023-02-15T02:07:22;68.43;;;27.63;;
78148;SDS011;67396;42.664;23.382;2023-02-15T02:09:51;66.97;;;25.75;;
78148;SDS011;67396;42.664;23.382;2023-02-15T02:12:17;63.35;;;23.65;;
78148;SDS011;67396;42.664;23.382;2023-02-15T02:14:45;65.65;;;27.40;;
78148;SDS011;67396;42.664;23.382;2023-02-15T02:39:32;64.30;;;24.10;;
78148;SDS011;67396;42.664;23.382;2023-02-15T02:44:46;63.90;;;24.90;;
78148;SDS011;67396;42.664;23.382;2023-02-15T02:49:58;50.50;;;20.30;;
78148;SDS011;67396;42.664;23.382;2023-02-15T02:52:44;62.75;;;23.33;;
78148;SDS011;67396;42.664;23.382;2023-02-15T02:55:23;62.10;;;23.05;;
78148;SDS011;67396;42.664;23.382;2023-02-15T03:00:26;59.63;;;25.90;;
78148;SDS011;67396;42.664;23.382;2023-02-15T03:03:10;62.20;;;24.17;;
78148;SDS011;67396;42.664;23.382;2023-02-15T03:05:41;55.63;;;23.20;;
78148;SDS011;67396;42.664;23.382;2023-02-15T03:08:12;58.28;;;22.55;;
78148;SDS011;67396;42.664;23.382;2023-02-15T03:10:46;61.45;;;22.98;;
78148;SDS011;67396;42.664;23.382;2023-02-15T03:13:15;61.17;;;24.23;;
78148;SDS011;67396;42.664;23.382;2023-02-15T03:15:41;52.42;;;22.08;;
78148;SDS011;67396;42.664;23.382;2023-02-15T03:18:46;58.67;;;22.35;;
78148;SDS011;67396;42.664;23.382;2023-02-15T03:21:19;55.85;;;22.05;;
78148;SDS011;67396;42.664;23.382;2023-02-15T03:24:07;53.83;;;21.65;;
78148;SDS011;67396;42.664;23.382;2023-02-15T03:26:35;55.00;;;23.33;;
78148;SDS011;67396;42.664;23.382;2023-02-15T03:29:04;51.97;;;21.45;;
78148;SDS011;67396;42.664;23.382;2023-02-15T03:31:32;58.42;;;25.90;;
78148;SDS011;67396;42.664;23.382;2023-02-15T03:34:06;58.38;;;24.25;;
78148;SDS011;67396;42.664;23.382;2023-02-15T03:42:31;53.92;;;22.55;;
78148;SDS011;67396;42.664;23.382;2023-02-15T03:45:05;48.63;;;20.38;;
78148;SDS011;67396;42.664;23.382;2023-02-15T03:47:37;56.63;;;22.00;;
78148;SDS011;67396;42.664;23.382;2023-02-15T03:50:16;52.17;;;22.83;;
78148;SDS011;67396;42.664;23.382;2023-02-15T03:53:03;56.72;;;21.80;;
78148;SDS011;67396;42.664;23.382;2023-02-15T03:55:34;52.22;;;23.45;;
78148;SDS011;67396;42.664;23.382;2023-02-15T03:58:00;53.80;;;21.55;;
78148;SDS011;67396;42.664;23.382;2023-02-15T04:00:48;54.55;;;22.02;;
78148;SDS011;67396;42.664;23.382;2023-02-15T04:03:54;51.88;;;20.48;;
78148;SDS011;67396;42.664;23.382;2023-02-15T04:06:25;54.55;;;23.40;;
78148;SDS011;67396;42.664;23.382;2023-02-15T04:08:50;54.20;;;20.05;;
78148;SDS011;67396;42.664;23.382;2023-02-15T04:11:34;61.60;;;25.13;;
78148;SDS011;67396;42.664;23.382;2023-02-15T04:13:59;54.25;;;20.50;;
78148;SDS011;67396;42.664;23.382;2023-02-15T04:16:45;55.15;;;21.10;;
78148;SDS011;67396;42.664;23.382;2023-02-15T04:19:10;46.83;;;21.00;;
78148;SDS011;67396;42.664;23.382;2023-02-15T04:21:54;52.88;;;21.30;;
78148;SDS011;67396;42.664;23.382;2023-02-15T04:24:38;50.90;;;23.40;;
78148;SDS011;67396;42.664;23.382;2023-02-15T04:27:22;52.13;;;20.90;;
78148;SDS011;67396;42.664;23.382;2023-02-15T04:29:47;50.30;;;20.92;;
78148;SDS011;67396;42.664;23.382;2023-02-15T04:32:14;52.67;;;21.27;;
78148;SDS011;67396;42.664;23.382;2023-02-15T04:34:40;52.42;;;20.73;;
78148;SDS011;67396;42.664;23.382;2023-02-15T04:37:05;54.08;;;20.48;;
78148;SDS011;67396;42.664;23.382;2023-02-15T04:39:31;51.22;;;22.40;;
78148;SDS011;67396;42.664;23.382;2023-02-15T04:41:57;53.30;;;20.98;;
78148;SDS011;67396;42.664;23.382;2023-02-15T04:44:22;51.00;;;20.70;;
78148;SDS011;67396;42.664;23.382;2023-02-15T04:46:48;50.47;;;20.08;;
78148;SDS011;67396;42.664;23.382;2023-02-15T04:49:13;46.08;;;20.70;;
78148;SDS011;67396;42.664;23.382;2023-02-15T04:51:39;50.92;;;21.60;;
78148;SDS011;67396;42.664;23.382;2023-02-15T04:54:05;51.22;;;22.75;;
78148;SDS011;67396;42.664;23.382;2023-02-15T04:56:30;58.33;;;23.35;;
78148;SDS011;67396;42.664;23.382;2023-02-15T04:58:58;51.25;;;21.55;;
78148;SDS011;67396;42.664;23.382;2023-02-15T05:01:23;59.72;;;23.73;;
78148;SDS011;67396;42.664;23.382;2023-02-15T05:03:48;51.63;;;20.83;;
78148;SDS011;67396;42.664;23.382;2023-02-15T05:06:14;54.58;;;22.95;;
78148;SDS011;67396;42.664;23.382;2023-02-15T05:08:39;56.38;;;22.45;;
78148;SDS011;67396;42.664;23.382;2023-02-15T05:11:05;50.15;;;21.50;;
78148;SDS011;67396;42.664;23.382;2023-02-15T05:13:30;55.38;;;24.13;;
78148;SDS011;67396;42.664;23.382;2023-02-15T05:15:55;53.35;;;22.92;;
78148;SDS011;67396;42.664;23.382;2023-02-15T05:18:21;55.10;;;22.23;;
78148;SDS011;67396;42.664;23.382;2023-02-15T05:21:05;59.65;;;21.58;;
78148;SDS011;67396;42.664;23.382;2023-02-15T05:23:31;54.65;;;20.88;;
78148;SDS011;67396;42.664;23.382;2023-02-15T05:25:56;54.30;;;22.30;;
78148;SDS011;67396;42.664;23.382;2023-02-15T05:28:40;55.47;;;21.42;;
78148;SDS011;67396;42.664;23.382;2023-02-15T05:31:18;57.05;;;22.55;;
78148;SDS011;67396;42.664;23.382;2023-02-15T05:33:44;59.88;;;23.38;;
78148;SDS011;67396;42.664;23.382;2023-02-15T05:36:09;55.80;;;21.73;;
78148;SDS011;67396;42.664;23.382;2023-02-15T05:38:35;52.50;;;20.95;;
78148;SDS011;67396;42.664;23.382;2023-02-15T05:41:05;53.30;;;22.42;;
78148;SDS011;67396;42.664;23.382;2023-02-15T05:43:31;60.15;;;24.52;;
78148;SDS011;67396;42.664;23.382;2023-02-15T05:45:58;60.03;;;21.40;;
78148;SDS011;67396;42.664;23.382;2023-02-15T05:48:24;53.30;;;20.98;;
78148;SDS011;67396;42.664;23.382;2023-02-15T05:53:22;49.80;;;20.35;;
78148;SDS011;67396;42.664;23.382;2023-02-15T05:55:48;46.53;;;20.85;;
78148;SDS011;67396;42.664;23.382;2023-02-15T05:58:13;51.65;;;21.38;;
78148;SDS011;67396;42.664;23.382;2023-02-15T06:00:39;48.25;;;20.83;;
78148;SDS011;67396;42.664;23.382;2023-02-15T06:03:04;49.00;;;21.05;;
78148;SDS011;67396;42.664;23.382;2023-02-15T06:05:30;51.35;;;20.30;;
78148;SDS011;67396;42.664;23.382;2023-02-15T06:07:55;54.45;;;22.20;;
78148;SDS011;67396;42.664;23.382;2023-02-15T06:10:21;45.97;;;19.17;;
78148;SDS011;67396;42.664;23.382;2023-02-15T06:12:46;54.75;;;22.17;;
78148;SDS011;67396;42.664;23.382;2023-02-15T06:15:11;57.20;;;23.40;;
78148;SDS011;67396;42.664;23.382;2023-02-15T06:17:40;62.70;;;23.92;;
78148;SDS011;67396;42.664;23.382;2023-02-15T06:20:06;53.40;;;21.02;;
78148;SDS011;67396;42.664;23.382;2023-02-15T06:22:33;56.80;;;22.55;;
78148;SDS011;67396;42.664;23.382;2023-02-15T06:24:58;49.03;;;21.17;;
78148;SDS011;67396;42.664;23.382;2023-02-15T06:29:49;42.67;;;18.33;;
78148;SDS011;67396;42.664;23.382;2023-02-15T06:32:14;47.95;;;19.10;;
78148;SDS011;67396;42.664;23.382;2023-02-15T06:34:40;45.17;;;19.30;;
78148;SDS011;67396;42.664;23.382;2023-02-15T06:37:05;49.70;;;20.23;;
78148;SDS011;67396;42.664;23.382;2023-02-15T06:39:33;47.95;;;21.58;;
78148;SDS011;67396;42.664;23.382;2023-02-15T06:41:58;47.30;;;19.90;;
78148;SDS011;67396;42.664;23.382;2023-02-15T06:44:24;43.17;;;19.83;;
78148;SDS011;67396;42.664;23.382;2023-02-15T06:46:49;48.30;;;20.50;;
78148;SDS011;67396;42.664;23.382;2023-02-15T06:49:15;45.63;;;18.50;;
78148;SDS011;67396;42.664;23.382;2023-02-15T06:51:42;43.83;;;17.30;;
78148;SDS011;67396;42.664;23.382;2023-02-15T06:54:08;47.33;;;18.95;;
78148;SDS011;67396;42.664;23.382;2023-02-15T06:56:33;46.60;;;20.13;;
78148;SDS011;67396;42.664;23.382;2023-02-15T06:58:59;44.50;;;19.27;;
78148;SDS011;67396;42.664;23.382;2023-02-15T07:01:24;35.55;;;15.43;;
78148;SDS011;67396;42.664;23.382;2023-02-15T07:03:49;36.88;;;15.32;;
78148;SDS011;67396;42.664;23.382;2023-02-15T07:06:15;25.83;;;12.38;;
78148;SDS011;67396;42.664;23.382;2023-02-15T07:08:40;38.00;;;15.70;;
78148;SDS011;67396;42.664;23.382;2023-02-15T07:11:06;32.78;;;12.93;;
78148;SDS011;67396;42.664;23.382;2023-02-15T07:13:50;29.05;;;11.45;;
78148;SDS011;67396;42.664;23.382;2023-02-15T07:16:17;34.00;;;13.65;;
78148;SDS011;67396;42.664;23.382;2023-02-15T07:18:43;39.20;;;16.13;;
78148;SDS011;67396;42.664;23.382;2023-02-15T07:23:34;31.92;;;14.55;;
78148;SDS011;67396;42.664;23.382;2023-02-15T07:26:01;35.90;;;15.20;;
78148;SDS011;67396;42.664;23.382;2023-02-15T07:28:27;34.75;;;15.93;;
78148;SDS011;67396;42.664;23.382;2023-02-15T07:30:53;33.80;;;13.75;;
78148;SDS011;67396;42.664;23.382;2023-02-15T07:33:21;37.05;;;15.77;;
78148;SDS011;67396;42.664;23.382;2023-02-15T07:35:55;34.88;;;16.40;;
78148;SDS011;67396;42.664;23.382;2023-02-15T07:38:26;35.72;;;14.43;;
78148;SDS011;67396;42.664;23.382;2023-02-15T07:41:00;30.58;;;15.50;;
78148;SDS011;67396;42.664;23.382;2023-02-15T07:43:33;35.60;;;14.55;;
78148;SDS011;67396;42.664;23.382;2023-02-15T07:46:00;41.90;;;17.60;;
78148;SDS011;67396;42.664;23.382;2023-02-15T07:48:28;36.67;;;15.00;;
78148;SDS011;67396;42.664;23.382;2023-02-15T07:50:53;35.25;;;15.13;;
78148;SDS011;67396;42.664;23.382;2023-02-15T07:53:19;39.15;;;17.33;;
78148;SDS011;67396;42.664;23.382;2023-02-15T07:55:45;33.28;;;15.25;;
78148;SDS011;67396;42.664;23.382;2023-02-15T07:58:10;36.40;;;17.67;;
78148;SDS011;67396;42.664;23.382;2023-02-15T08:00:36;41.15;;;17.33;;
78148;SDS011;67396;42.664;23.382;2023-02-15T08:03:26;35.33;;;13.32;;
78148;SDS011;67396;42.664;23.382;2023-02-15T08:05:55;30.92;;;14.25;;
78148;SDS011;67396;42.664;23.382;2023-02-15T08:08:23;41.13;;;18.20;;
78148;SDS011;67396;42.664;23.382;2023-02-15T08:11:37;36.58;;;15.88;;
78148;SDS011;67396;42.664;23.382;2023-02-15T08:14:05;38.28;;;15.50;;
78148;SDS011;67396;42.664;23.382;2023-02-15T08:19:27;36.15;;;16.00;;
78148;SDS011;67396;42.664;23.382;2023-02-15T08:21:53;30.02;;;13.52;;
78148;SDS011;67396;42.664;23.382;2023-02-15T08:24:23;36.53;;;17.02;;
78148;SDS011;67396;42.664;23.382;2023-02-15T08:26:50;42.92;;;17.55;;
78148;SDS011;67396;42.664;23.382;2023-02-15T08:29:18;44.45;;;18.05;;
78148;SDS011;67396;42.664;23.382;2023-02-15T08:31:52;38.70;;;17.58;;
78148;SDS011;67396;42.664;23.382;2023-02-15T08:34:18;39.03;;;15.85;;
78148;SDS011;67396;42.664;23.382;2023-02-15T08:36:44;43.33;;;17.15;;
78148;SDS011;67396;42.664;23.382;2023-02-15T08:39:10;40.30;;;16.55;;
78148;SDS011;67396;42.664;23.382;2023-02-15T08:41:37;37.50;;;17.05;;
78148;SDS011;67396;42.664;23.382;2023-02-15T08:44:05;42.50;;;17.95;;
78148;SDS011;67396;42.664;23.382;2023-02-15T08:46:38;52.70;;;18.50;;
78148;SDS011;67396;42.664;23.382;2023-02-15T08:49:08;40.03;;;17.92;;
78148;SDS011;67396;42.664;23.382;2023-02-15T08:51:41;43.47;;;17.75;;
78148;SDS011;67396;42.664;23.382;2023-02-15T08:54:08;45.45;;;17.98;;
78148;SDS011;67396;42.664;23.382;2023-02-15T08:56:42;43.95;;;19.13;;
78148;SDS011;67396;42.664;23.382;2023-02-15T08:59:13;43.58;;;18.08;;
78148;SDS011;67396;42.664;23.382;2023-02-15T09:01:52;36.38;;;16.35;;
78148;SDS011;67396;42.664;23.382;2023-02-15T09:04:21;39.58;;;16.10;;
78148;SDS011;67396;42.664;23.382;2023-02-15T09:06:48;41.92;;;16.65;;
78148;SDS011;67396;42.664;23.382;2023-02-15T09:09:20;38.92;;;15.77;;
78148;SDS011;67396;42.664;23.382;2023-02-15T09:11:50;36.25;;;14.88;;
78148;SDS011;67396;42.664;23.382;2023-02-15T09:16:53;23.38;;;12.00;;
78148;SDS011;67396;42.664;23.382;2023-02-15T09:19:20;39.05;;;17.60;;
78148;SDS011;67396;42.664;23.382;2023-02-15T09:21:49;35.70;;;14.55;;
78148;SDS011;67396;42.664;23.382;2023-02-15T09:24:23;39.92;;;15.20;;
78148;SDS011;67396;42.664;23.382;2023-02-15T09:26:56;26.55;;;12.65;;
78148;SDS011;67396;42.664;23.382;2023-02-15T09:29:30;34.50;;;15.93;;
78148;SDS011;67396;42.664;23.382;2023-02-15T09:32:03;36.85;;;15.05;;
78148;SDS011;67396;42.664;23.382;2023-02-15T09:34:34;31.90;;;14.40;;
78148;SDS011;67396;42.664;23.382;2023-02-15T09:37:00;31.25;;;16.00;;
78148;SDS011;67396;42.664;23.382;2023-02-15T09:39:27;30.67;;;15.73;;
78148;SDS011;67396;42.664;23.382;2023-02-15T09:42:04;36.30;;;15.13;;
78148;SDS011;67396;42.664;23.382;2023-02-15T09:48:21;34.13;;;14.40;;
78148;SDS011;67396;42.664;23.382;2023-02-15T09:50:55;39.83;;;16.88;;
78148;SDS011;67396;42.664;23.382;2023-02-15T09:56:31;31.08;;;13.63;;
78148;SDS011;67396;42.664;23.382;2023-02-15T10:10:39;29.08;;;15.25;;
78148;SDS011;67396;42.664;23.382;2023-02-15T10:23:57;37.63;;;16.52;;
78148;SDS011;67396;42.664;23.382;2023-02-15T10:26:42;42.05;;;16.73;;
78148;SDS011;67396;42.664;23.382;2023-02-15T10:31:55;38.80;;;15.80;;
78148;SDS011;67396;42.664;23.382;2023-02-15T10:37:59;36.05;;;16.83;;
78148;SDS011;67396;42.664;23.382;2023-02-15T10:40:42;44.95;;;17.70;;
78148;SDS011;67396;42.664;23.382;2023-02-15T11:03:43;44.28;;;16.48;;
78148;SDS011;67396;42.664;23.382;2023-02-15T11:06:17;26.88;;;12.10;;
78148;SDS011;67396;42.664;23.382;2023-02-15T11:08:47;39.30;;;17.88;;
78148;SDS011;67396;42.664;23.382;2023-02-15T11:11:38;42.42;;;17.27;;
78148;SDS011;67396;42.664;23.382;2023-02-15T11:14:19;40.00;;;17.25;;
78148;SDS011;67396;42.664;23.382;2023-02-15T11:17:11;39.20;;;17.23;;
78148;SDS011;67396;42.664;23.382;2023-02-15T11:22:33;48.78;;;18.25;;
78148;SDS011;67396;42.664;23.382;2023-02-15T11:25:11;33.78;;;16.00;;
78148;SDS011;67396;42.664;23.382;2023-02-15T11:27:59;46.65;;;19.08;;
78148;SDS011;67396;42.664;23.382;2023-02-15T11:30:51;38.42;;;18.10;;
78148;SDS011;67396;42.664;23.382;2023-02-15T11:38:29;39.63;;;17.05;;
78148;SDS011;67396;42.664;23.382;2023-02-15T11:41:11;37.42;;;16.15;;
78148;SDS011;67396;42.664;23.382;2023-02-15T11:46:13;45.33;;;20.13;;
78148;SDS011;67396;42.664;23.382;2023-02-15T11:48:39;42.30;;;18.48;;
78148;SDS011;67396;42.664;23.382;2023-02-15T11:51:08;104.22;;;38.35;;
78148;SDS011;67396;42.664;23.382;2023-02-15T11:53:38;46.15;;;19.67;;
78148;SDS011;67396;42.664;23.382;2023-02-15T11:56:03;41.58;;;18.10;;
78148;SDS011;67396;42.664;23.382;2023-02-15T11:58:41;42.88;;;17.92;;
78148;SDS011;67396;42.664;23.382;2023-02-15T12:03:48;35.80;;;17.33;;
78148;SDS011;67396;42.664;23.382;2023-02-15T12:08:48;42.88;;;17.17;;
78148;SDS011;67396;42.664;23.382;2023-02-15T12:11:29;42.42;;;18.58;;
78148;SDS011;67396;42.664;23.382;2023-02-15T12:14:01;45.70;;;19.08;;
78148;SDS011;67396;42.664;23.382;2023-02-15T12:16:31;37.10;;;17.02;;
78148;SDS011;67396;42.664;23.382;2023-02-15T12:19:05;49.50;;;18.60;;
78148;SDS011;67396;42.664;23.382;2023-02-15T12:21:48;42.90;;;17.10;;
78148;SDS011;67396;42.664;23.382;2023-02-15T12:24:26;41.13;;;18.85;;
78148;SDS011;67396;42.664;23.382;2023-02-15T12:26:56;43.20;;;18.67;;
78148;SDS011;67396;42.664;23.382;2023-02-15T12:29:23;41.83;;;18.35;;
78148;SDS011;67396;42.664;23.382;2023-02-15T12:31:55;45.85;;;18.67;;
78148;SDS011;67396;42.664;23.382;2023-02-15T12:34:26;48.50;;;19.55;;
78148;SDS011;67396;42.664;23.382;2023-02-15T12:39:32;40.08;;;16.20;;
78148;SDS011;67396;42.664;23.382;2023-02-15T12:42:41;49.08;;;19.17;;
78148;SDS011;67396;42.664;23.382;2023-02-15T12:44:58;38.03;;;15.50;;
78148;SDS011;67396;42.664;23.382;2023-02-15T12:47:26;38.60;;;17.13;;
78148;SDS011;67396;42.664;23.382;2023-02-15T12:52:49;39.00;;;17.90;;
78148;SDS011;67396;42.664;23.382;2023-02-15T12:57:46;53.58;;;21.80;;
78148;SDS011;67396;42.664;23.382;2023-02-15T13:08:09;45.58;;;17.98;;
78148;SDS011;67396;42.664;23.382;2023-02-15T13:10:57;45.17;;;17.42;;
78148;SDS011;67396;42.664;23.382;2023-02-15T13:13:26;38.38;;;17.30;;
78148;SDS011;67396;42.664;23.382;2023-02-15T13:16:02;41.20;;;16.95;;
78148;SDS011;67396;42.664;23.382;2023-02-15T13:18:42;49.17;;;21.05;;
78148;SDS011;67396;42.664;23.382;2023-02-15T13:23:36;45.65;;;19.13;;
78148;SDS011;67396;42.664;23.382;2023-02-15T13:26:05;39.72;;;17.48;;
78148;SDS011;67396;42.664;23.382;2023-02-15T13:28:44;37.63;;;16.77;;
78148;SDS011;67396;42.664;23.382;2023-02-15T13:31:14;40.38;;;18.38;;
78148;SDS011;67396;42.664;23.382;2023-02-15T13:33:43;42.03;;;17.60;;
78148;SDS011;67396;42.664;23.382;2023-02-15T13:36:29;46.30;;;19.05;;
78148;SDS011;67396;42.664;23.382;2023-02-15T13:42:01;36.97;;;14.95;;
78148;SDS011;67396;42.664;23.382;2023-02-15T13:53:01;42.60;;;19.05;;
78148;SDS011;67396;42.664;23.382;2023-02-15T13:55:31;39.95;;;17.70;;
78148;SDS011;67396;42.664;23.382;2023-02-15T14:01:24;44.25;;;19.02;;
78148;SDS011;67396;42.664;23.382;2023-02-15T14:09:53;46.13;;;19.30;;
78148;SDS011;67396;42.664;23.382;2023-02-15T14:12:30;44.53;;;19.63;;
78148;SDS011;67396;42.664;23.382;2023-02-15T14:18:21;50.40;;;21.38;;
78148;SDS011;67396;42.664;23.382;2023-02-15T14:31:34;45.28;;;18.30;;
78148;SDS011;67396;42.664;23.382;2023-02-15T14:34:04;50.33;;;21.40;;
78148;SDS011;67396;42.664;23.382;2023-02-15T14:36:31;44.22;;;21.90;;
78148;SDS011;67396;42.664;23.382;2023-02-15T14:42:27;42.17;;;18.25;;
78148;SDS011;67396;42.664;23.382;2023-02-15T14:47:53;73.70;;;27.92;;
78148;SDS011;67396;42.664;23.382;2023-02-15T14:56:04;44.30;;;19.70;;
78148;SDS011;67396;42.664;23.382;2023-02-15T14:58:29;42.38;;;17.88;;
78148;SDS011;67396;42.664;23.382;2023-02-15T15:00:55;48.47;;;21.27;;
78148;SDS011;67396;42.664;23.382;2023-02-15T15:03:32;37.00;;;18.27;;
78148;SDS011;67396;42.664;23.382;2023-02-15T15:06:00;44.72;;;20.13;;
78148;SDS011;67396;42.664;23.382;2023-02-15T15:08:31;48.50;;;19.63;;
78148;SDS011;67396;42.664;23.382;2023-02-15T15:13:54;49.08;;;21.35;;
78148;SDS011;67396;42.664;23.382;2023-02-15T15:16:45;47.97;;;21.73;;
78148;SDS011;67396;42.664;23.382;2023-02-15T15:19:56;50.90;;;21.10;;
78148;SDS011;67396;42.664;23.382;2023-02-15T15:22:20;54.40;;;21.98;;
78148;SDS011;67396;42.664;23.382;2023-02-15T15:27:58;45.30;;;18.63;;
78148;SDS011;67396;42.664;23.382;2023-02-15T15:43:19;51.80;;;18.63;;
78148;SDS011;67396;42.664;23.382;2023-02-15T15:49:14;52.17;;;25.35;;
78148;SDS011;67396;42.664;23.382;2023-02-15T15:51:42;60.30;;;25.80;;
78148;SDS011;67396;42.664;23.382;2023-02-15T15:54:17;58.45;;;25.45;;
78148;SDS011;67396;42.664;23.382;2023-02-15T15:56:47;57.35;;;25.15;;
78148;SDS011;67396;42.664;23.382;2023-02-15T15:59:21;49.10;;;20.08;;
78148;SDS011;67396;42.664;23.382;2023-02-15T16:01:50;49.17;;;21.42;;
78148;SDS011;67396;42.664;23.382;2023-02-15T16:04:26;47.55;;;21.10;;
78148;SDS011;67396;42.664;23.382;2023-02-15T16:06:57;43.08;;;18.58;;
78148;SDS011;67396;42.664;23.382;2023-02-15T16:09:38;50.28;;;21.20;;
78148;SDS011;67396;42.664;23.382;2023-02-15T16:12:03;54.55;;;22.13;;
78148;SDS011;67396;42.664;23.382;2023-02-15T16:14:39;49.95;;;20.20;;
78148;SDS011;67396;42.664;23.382;2023-02-15T16:17:07;51.08;;;22.40;;
78148;SDS011;67396;42.664;23.382;2023-02-15T16:19:44;52.72;;;24.75;;
78148;SDS011;67396;42.664;23.382;2023-02-15T16:22:11;50.78;;;22.05;;
78148;SDS011;67396;42.664;23.382;2023-02-15T16:27:37;53.55;;;23.92;;
78148;SDS011;67396;42.664;23.382;2023-02-15T16:30:16;55.83;;;23.33;;
78148;SDS011;67396;42.664;23.382;2023-02-15T16:32:42;51.05;;;23.27;;
78148;SDS011;67396;42.664;23.382;2023-02-15T16:35:18;56.53;;;23.40;;
78148;SDS011;67396;42.664;23.382;2023-02-15T16:37:44;59.72;;;22.88;;
78148;SDS011;67396;42.664;23.382;2023-02-15T16:40:25;63.83;;;23.73;;
78148;SDS011;67396;42.664;23.382;2023-02-15T16:43:00;57.83;;;20.73;;
78148;SDS011;67396;42.664;23.382;2023-02-15T16:45:28;61.25;;;23.35;;
78148;SDS011;67396;42.664;23.382;2023-02-15T16:47:57;49.60;;;20.05;;
78148;SDS011;67396;42.664;23.382;2023-02-15T16:50:33;54.38;;;24.20;;
78148;SDS011;67396;42.664;23.382;2023-02-15T16:53:02;51.53;;;20.80;;
78148;SDS011;67396;42.664;23.382;2023-02-15T16:55:33;57.75;;;23.05;;
78148;SDS011;67396;42.664;23.382;2023-02-15T16:58:02;32.58;;;17.55;;
78148;SDS011;67396;42.664;23.382;2023-02-15T17:00:33;47.03;;;22.13;;
78148;SDS011;67396;42.664;23.382;2023-02-15T17:03:03;44.85;;;20.95;;
78148;SDS011;67396;42.664;23.382;2023-02-15T17:05:40;54.20;;;21.50;;
78148;SDS011;67396;42.664;23.382;2023-02-15T17:13:24;56.20;;;23.05;;
78148;SDS011;67396;42.664;23.382;2023-02-15T17:18:29;49.97;;;20.25;;
78148;SDS011;67396;42.664;23.382;2023-02-15T17:21:01;55.70;;;22.70;;
78148;SDS011;67396;42.664;23.382;2023-02-15T17:23:38;52.67;;;20.10;;
78148;SDS011;67396;42.664;23.382;2023-02-15T17:26:13;49.45;;;21.20;;
78148;SDS011;67396;42.664;23.382;2023-02-15T17:28:48;52.28;;;20.52;;
78148;SDS011;67396;42.664;23.382;2023-02-15T17:31:16;45.58;;;20.98;;
78148;SDS011;67396;42.664;23.382;2023-02-15T17:33:43;45.53;;;20.27;;
78148;SDS011;67396;42.664;23.382;2023-02-15T17:38:59;52.17;;;21.70;;
78148;SDS011;67396;42.664;23.382;2023-02-15T17:41:31;45.33;;;21.35;;
78148;SDS011;67396;42.664;23.382;2023-02-15T17:43:59;63.15;;;24.60;;
78148;SDS011;67396;42.664;23.382;2023-02-15T17:46:25;51.60;;;21.83;;
78148;SDS011;67396;42.664;23.382;2023-02-15T17:48:56;55.75;;;23.17;;
78148;SDS011;67396;42.664;23.382;2023-02-15T17:51:22;52.85;;;21.92;;
78148;SDS011;67396;42.664;23.382;2023-02-15T17:53:51;50.22;;;22.10;;
78148;SDS011;67396;42.664;23.382;2023-02-15T17:56:36;50.83;;;22.52;;
78148;SDS011;67396;42.664;23.382;2023-02-15T17:59:02;57.88;;;23.75;;
78148;SDS011;67396;42.664;23.382;2023-02-15T18:01:32;54.40;;;24.02;;
78148;SDS011;67396;42.664;23.382;2023-02-15T18:04:18;49.33;;;22.05;;
78148;SDS011;67396;42.664;23.382;2023-02-15T18:07:03;50.13;;;22.83;;
78148;SDS011;67396;42.664;23.382;2023-02-15T18:13:01;57.38;;;24.45;;
78148;SDS011;67396;42.664;23.382;2023-02-15T18:15:26;57.25;;;24.83;;
78148;SDS011;67396;42.664;23.382;2023-02-15T18:17:52;55.20;;;24.13;;
78148;SDS011;67396;42.664;23.382;2023-02-15T18:20:19;55.55;;;25.33;;
78148;SDS011;67396;42.664;23.382;2023-02-15T18:22:48;57.92;;;23.38;;
78148;SDS011;67396;42.664;23.382;2023-02-15T18:25:17;51.40;;;22.88;;